Time;durP1;ratioP1;P1;durP2;ratioP2;P2;SDS_P1;SDS_P2;PMS_P1;PMS_P2;Temp;Humidity;BMP_temperature;BMP_pressure;BME280_temperature;BME280_humidity;BME280_pressure;Samples;Min_cycle;Max_cycle;Signal;HPM_P1;HPM_P2
2023/08/24 00:00:37;;;;;;;0.00;0.00;;;;;;;14.95;100.00;101647.56;5115130;28;20027;-49
2023/08/24 00:03:03;;;;;;;0.10;0.10;;;;;;;14.90;100.00;101643.09;5115531;28;20073;-50
2023/08/24 00:05:28;;;;;;;0.10;0.10;;;;;;;14.92;100.00;101641.41;5114231;28;20023;-50
2023/08/24 00:07:53;;;;;;;0.10;0.10;;;;;;;14.88;100.00;101639.59;5115509;28;20020;-51
2023/08/24 00:10:19;;;;;;;0.10;0.10;;;;;;;14.93;100.00;101638.00;5115001;28;20470;-50
2023/08/24 00:12:44;;;;;;;0.10;0.10;;;;;;;14.96;100.00;101643.25;5114470;28;20059;-51
2023/08/24 00:15:10;;;;;;;0.10;0.10;;;;;;;15.08;100.00;101650.44;5115257;28;20043;-50
2023/08/24 00:17:36;;;;;;;0.10;0.10;;;;;;;15.17;100.00;101652.41;5114790;28;20028;-51
2023/08/24 00:20:04;;;;;;;0.10;0.10;;;;;;;15.07;100.00;101652.19;5114484;28;20024;-51
2023/08/24 00:22:30;;;;;;;0.10;0.10;;;;;;;15.09;100.00;101655.69;5114882;28;20029;-51
2023/08/24 00:24:55;;;;;;;0.10;0.10;;;;;;;15.00;100.00;101654.59;5115159;28;20031;-51
2023/08/24 00:27:20;;;;;;;0.10;0.10;;;;;;;14.87;100.00;101637.84;5113744;28;20475;-50
2023/08/24 00:29:45;;;;;;;0.10;0.10;;;;;;;14.67;100.00;101630.44;5114912;28;20107;-49
2023/08/24 00:32:11;;;;;;;0.08;0.08;;;;;;;14.54;100.00;101624.03;5114856;28;20028;-50
2023/08/24 00:34:37;;;;;;;0.10;0.10;;;;;;;14.46;100.00;101623.84;5113945;28;20153;-50
2023/08/24 00:37:02;;;;;;;0.10;0.10;;;;;;;14.45;100.00;101634.16;5114645;28;20050;-50
2023/08/24 00:39:28;;;;;;;0.10;0.10;;;;;;;14.57;100.00;101628.41;5114658;28;20023;-51
2023/08/24 00:41:53;;;;;;;0.10;0.10;;;;;;;14.64;100.00;101636.44;5114120;28;20530;-47
2023/08/24 00:44:20;;;;;;;0.10;0.10;;;;;;;14.71;100.00;101634.88;5114392;28;20031;-51
2023/08/24 00:46:45;;;;;;;0.05;0.05;;;;;;;14.63;100.00;101631.19;5114545;28;20046;-50
2023/08/24 00:49:10;;;;;;;0.10;0.10;;;;;;;14.58;100.00;101630.19;5113734;28;20421;-51
2023/08/24 00:51:36;;;;;;;0.00;0.00;;;;;;;14.45;100.00;101623.78;5114384;28;20023;-51
2023/08/24 00:54:01;;;;;;;0.10;0.10;;;;;;;14.35;100.00;101614.88;5114212;28;20043;-50
2023/08/24 00:56:29;;;;;;;0.10;0.10;;;;;;;14.24;100.00;101613.72;5113376;27;20019;-49
2023/08/24 00:58:56;;;;;;;0.10;0.10;;;;;;;14.20;100.00;101614.47;5114364;28;20020;-51
2023/08/24 01:01:21;;;;;;;0.10;0.10;;;;;;;14.35;100.00;101612.28;5114057;28;20072;-50
2023/08/24 01:03:47;;;;;;;0.10;0.10;;;;;;;14.33;100.00;101617.44;5113380;28;20413;-50
2023/08/24 01:06:12;;;;;;;0.10;0.10;;;;;;;14.43;100.00;101615.09;5114087;28;20023;-50
2023/08/24 01:08:37;;;;;;;0.10;0.10;;;;;;;14.55;100.00;101611.94;5113387;28;20047;-50
2023/08/24 01:11:12;;;;;;;0.10;0.10;;;;;;;14.59;100.00;101611.16;5114187;28;20053;-50
2023/08/24 01:13:59;;;;;;;0.10;0.10;;;;;;;14.66;100.00;101607.94;5114035;27;20024;-50
2023/08/24 01:16:30;;;;;;;0.00;0.00;;;;;;;14.59;100.00;101608.56;5113045;28;20077;-50
2023/08/24 01:18:57;;;;;;;0.10;0.10;;;;;;;14.58;100.00;101609.44;5114240;28;20022;-51
2023/08/24 01:21:23;;;;;;;0.10;0.10;;;;;;;14.59;100.00;101606.88;5113821;28;20027;-51
2023/08/24 01:23:57;;;;;;;0.10;0.10;;;;;;;14.67;100.00;101620.06;5113246;28;20024;-51
2023/08/24 01:26:23;;;;;;;0.10;0.10;;;;;;;14.69;100.00;101618.38;5113647;28;20094;-49
2023/08/24 01:28:50;;;;;;;0.10;0.10;;;;;;;14.60;100.00;101602.53;5113645;28;20542;-50
2023/08/24 01:31:16;;;;;;;0.10;0.10;;;;;;;14.60;100.00;101592.16;5112952;28;20028;-50
2023/08/24 01:33:42;;;;;;;0.10;0.10;;;;;;;14.63;100.00;101592.25;5113659;28;20031;-50
2023/08/24 01:36:09;;;;;;;0.10;0.10;;;;;;;14.72;100.00;101595.09;5113773;28;20035;-50
2023/08/24 01:38:35;;;;;;;0.10;0.10;;;;;;;14.86;100.00;101598.03;5112560;28;20374;-51
2023/08/24 01:41:17;;;;;;;0.10;0.10;;;;;;;14.92;100.00;101607.69;5113060;28;20027;-51
2023/08/24 01:43:46;;;;;;;0.10;0.10;;;;;;;15.03;100.00;101608.81;5113124;28;20020;-51
2023/08/24 01:46:16;;;;;;;0.08;0.08;;;;;;;14.99;100.00;101612.19;5113395;28;20030;-48
2023/08/24 01:48:43;;;;;;;0.10;0.10;;;;;;;15.00;100.00;101613.91;5113698;28;20038;-51
2023/08/24 01:51:10;;;;;;;0.10;0.10;;;;;;;15.01;100.00;101602.69;5112918;28;20040;-50
2023/08/24 01:53:36;;;;;;;0.10;0.10;;;;;;;15.05;100.00;101607.13;5112919;28;20048;-49
2023/08/24 01:56:09;;;;;;;0.10;0.10;;;;;;;15.03;100.00;101601.03;5113709;28;20083;-49
2023/08/24 01:58:34;;;;;;;0.10;0.10;;;;;;;15.11;100.00;101602.06;5112629;28;20103;-50
2023/08/24 02:00:59;;;;;;;0.10;0.10;;;;;;;15.11;100.00;101617.66;5113509;28;20043;-50
2023/08/24 02:03:25;;;;;;;0.10;0.10;;;;;;;15.18;100.00;101617.81;5113032;28;20035;-50
2023/08/24 02:05:50;;;;;;;0.10;0.10;;;;;;;15.22;100.00;101624.81;5112534;28;20031;-49
2023/08/24 02:08:15;;;;;;;0.03;0.03;;;;;;;15.25;100.00;101619.72;5112864;28;20478;-51
2023/08/24 02:10:40;;;;;;;0.10;0.10;;;;;;;15.25;100.00;101614.50;5113257;28;20023;-50
2023/08/24 02:13:06;;;;;;;0.10;0.10;;;;;;;15.24;100.00;101602.38;5112368;28;20028;-50
2023/08/24 02:15:31;;;;;;;0.08;0.08;;;;;;;15.32;100.00;101593.00;5112977;28;20144;-50
2023/08/24 02:17:56;;;;;;;0.10;0.10;;;;;;;15.29;100.00;101591.22;5113369;28;20371;-50
2023/08/24 02:20:22;;;;;;;0.00;0.00;;;;;;;15.27;100.00;101603.31;5112137;28;20019;-50
2023/08/24 02:22:47;;;;;;;0.10;0.10;;;;;;;15.27;100.00;101620.59;5113143;28;20383;-51
2023/08/24 02:25:13;;;;;;;0.10;0.10;;;;;;;15.23;100.00;101621.38;5113087;28;20103;-50
2023/08/24 02:27:38;;;;;;;0.10;0.10;;;;;;;15.23;100.00;101605.81;5112574;28;20384;-51
2023/08/24 02:30:04;;;;;;;0.10;0.10;;;;;;;15.23;100.00;101596.28;5112984;28;20386;-51
2023/08/24 02:32:29;;;;;;;0.10;0.10;;;;;;;15.29;100.00;101605.94;5112754;28;20147;-50
2023/08/24 02:34:55;;;;;;;0.10;0.10;;;;;;;15.29;100.00;101604.22;5112159;28;20027;-50
2023/08/24 02:37:21;;;;;;;0.10;0.10;;;;;;;15.34;100.00;101606.03;5112668;28;20055;-51
2023/08/24 02:39:46;;;;;;;0.10;0.10;;;;;;;15.40;100.00;101594.06;5113011;28;20036;-51
2023/08/24 02:42:11;;;;;;;0.10;0.10;;;;;;;15.49;100.00;101585.56;5112104;28;20030;-48
2023/08/24 02:44:37;;;;;;;0.10;0.10;;;;;;;15.58;100.00;101566.72;5113136;28;20027;-50
2023/08/24 02:47:02;;;;;;;0.10;0.10;;;;;;;15.64;100.00;101561.66;5112332;28;20049;-51
2023/08/24 02:49:27;;;;;;;0.10;0.10;;;;;;;15.70;100.00;101542.69;5112373;28;20050;-51
2023/08/24 02:51:53;;;;;;;0.10;0.10;;;;;;;15.71;100.00;101553.13;5113811;28;20030;-50
2023/08/24 02:54:19;;;;;;;0.03;0.03;;;;;;;15.66;100.00;101546.97;5115528;28;20048;-51
2023/08/24 02:56:44;;;;;;;0.10;0.10;;;;;;;15.74;100.00;101536.72;5117811;28;20042;-49
2023/08/24 02:59:09;;;;;;;0.00;0.00;;;;;;;15.77;100.00;101532.44;5116956;27;20023;-51
2023/08/24 03:01:38;;;;;;;0.10;0.10;;;;;;;15.78;100.00;101516.00;5115769;28;20039;-50
2023/08/24 03:04:04;;;;;;;0.10;0.10;;;;;;;15.89;100.00;101512.75;5116834;28;20016;-48
2023/08/24 03:06:30;;;;;;;0.10;0.10;;;;;;;15.90;100.00;101497.19;5116314;28;20015;-51
2023/08/24 03:08:56;;;;;;;0.10;0.10;;;;;;;15.90;100.00;101472.94;5115775;28;20034;-51
2023/08/24 03:11:21;;;;;;;0.00;0.00;;;;;;;15.94;100.00;101451.34;5116172;28;20035;-51
2023/08/24 03:13:46;;;;;;;0.10;0.10;;;;;;;15.95;100.00;101432.28;5116488;27;20031;-51
2023/08/24 03:16:12;;;;;;;0.10;0.10;;;;;;;15.96;100.00;101431.44;5115334;28;20412;-50
2023/08/24 03:18:37;;;;;;;0.10;0.10;;;;;;;16.00;100.00;101435.84;5116419;28;20046;-47
2023/08/24 03:21:02;;;;;;;0.10;0.10;;;;;;;16.01;100.00;101432.41;5116316;28;20055;-51
2023/08/24 03:23:28;;;;;;;0.10;0.10;;;;;;;16.03;100.00;101435.88;5115168;28;20063;-51
2023/08/24 03:25:55;;;;;;;0.10;0.10;;;;;;;16.03;100.00;101433.28;5116448;28;20482;-51
2023/08/24 03:28:21;;;;;;;;;;;;;;;16.11;100.00;101417.81;5116297;28;20027;-51
2023/08/24 03:30:48;;;;;;;0.10;0.10;;;;;;;16.08;100.00;101408.22;5115517;28;19911;-51
2023/08/24 03:33:14;;;;;;;0.10;0.10;;;;;;;16.06;100.00;101406.47;5115720;28;20031;-49
2023/08/24 03:35:40;;;;;;;0.10;0.10;;;;;;;16.07;100.00;101414.28;5116055;28;20020;-51
2023/08/24 03:38:05;;;;;;;0.00;0.00;;;;;;;16.09;100.00;101419.53;5115265;28;20019;-50
2023/08/24 03:40:30;;;;;;;0.10;0.10;;;;;;;16.08;100.00;101420.38;5115764;28;20357;-51
2023/08/24 03:42:56;;;;;;;0.10;0.10;;;;;;;16.10;100.00;101409.16;5116049;28;20375;-51
2023/08/24 03:45:22;;;;;;;0.10;0.10;;;;;;;16.12;100.00;101415.22;5114912;28;20390;-50
2023/08/24 03:47:48;;;;;;;0.10;0.10;;;;;;;16.04;100.00;101416.84;5115833;28;20036;-50
2023/08/24 03:50:13;;;;;;;0.10;0.10;;;;;;;16.01;100.00;101410.72;5115273;28;20026;-49
2023/08/24 03:52:39;;;;;;;0.10;0.10;;;;;;;15.99;100.00;101418.50;5115011;28;20451;-49
2023/08/24 03:55:06;;;;;;;0.10;0.10;;;;;;;15.98;100.00;101419.34;5115615;28;20103;-51
2023/08/24 03:57:31;;;;;;;0.10;0.10;;;;;;;15.96;100.00;101418.47;5114679;28;20337;-45
2023/08/24 03:59:57;;;;;;;0.10;0.10;;;;;;;15.94;100.00;101427.94;5115517;28;20524;-46
2023/08/24 04:02:22;;;;;;;0.10;0.10;;;;;;;15.90;100.00;101428.75;5114857;28;20055;-50
2023/08/24 04:04:48;;;;;;;0.10;0.10;;;;;;;15.86;100.00;101429.53;5114814;28;20031;-49
2023/08/24 04:07:13;;;;;;;0.10;0.10;;;;;;;15.83;100.00;101432.06;5115101;28;20049;-48
2023/08/24 04:09:38;;;;;;;0.10;0.10;;;;;;;15.80;100.00;101438.97;5115558;28;20081;-51
2023/08/24 04:12:04;;;;;;;0.10;0.10;;;;;;;15.77;100.00;101438.88;5114855;28;20051;-46
2023/08/24 04:14:29;;;;;;;0.00;0.00;;;;;;;15.76;100.00;101434.56;5115351;28;20359;-50
2023/08/24 04:16:55;;;;;;;0.10;0.10;;;;;;;15.77;100.00;101433.69;5115427;28;20058;-51
2023/08/24 04:19:21;;;;;;;0.03;0.03;;;;;;;15.77;100.00;101423.28;5114397;27;20065;-50
2023/08/24 04:21:46;;;;;;;0.10;0.10;;;;;;;15.75;100.00;101432.81;5115168;28;20020;-46
2023/08/24 04:24:11;;;;;;;0.10;0.10;;;;;;;15.75;100.00;101427.59;5115190;28;20030;-45
2023/08/24 04:26:36;;;;;;;0.10;0.10;;;;;;;15.76;100.00;101431.06;5114491;28;20380;-47
2023/08/24 04:29:02;;;;;;;0.10;0.10;;;;;;;15.74;100.00;101433.66;5115109;28;20076;-51
2023/08/24 04:31:27;;;;;;;0.10;0.10;;;;;;;15.74;100.00;101433.66;5114871;28;20027;-51
2023/08/24 04:33:52;;;;;;;0.10;0.10;;;;;;;15.78;100.00;101429.38;5114033;28;20497;-46
2023/08/24 04:36:18;;;;;;;0.10;0.10;;;;;;;15.80;100.00;101428.56;5114662;28;20045;-46
2023/08/24 04:38:43;;;;;;;0.10;0.10;;;;;;;15.78;100.00;101417.25;5114809;28;20027;-49
2023/08/24 04:41:09;;;;;;;0.10;0.10;;;;;;;15.80;100.00;101423.38;5114185;28;20474;-50
2023/08/24 04:43:36;;;;;;;0.10;0.10;;;;;;;15.85;100.00;101430.38;5114253;28;20053;-50
2023/08/24 04:46:02;;;;;;;0.10;0.10;;;;;;;15.91;100.00;101430.50;5114707;28;20027;-48
2023/08/24 04:48:27;;;;;;;0.10;0.10;;;;;;;15.89;100.00;101432.19;5113439;28;20030;-51
2023/08/24 04:50:53;;;;;;;0.10;0.10;;;;;;;15.91;100.00;101425.31;5114410;28;20027;-48
2023/08/24 04:53:20;;;;;;;0.10;0.10;;;;;;;15.91;100.00;101425.31;5114096;28;20039;-46
2023/08/24 04:55:46;;;;;;;0.10;0.10;;;;;;;15.85;100.00;101420.00;5113796;28;20063;-50
2023/08/24 04:58:13;;;;;;;0.10;0.10;;;;;;;15.85;100.00;101420.00;5114368;28;20038;-47
2023/08/24 05:00:39;;;;;;;0.10;0.10;;;;;;;15.69;100.00;101417.09;5113751;28;20028;-51
2023/08/24 05:03:05;;;;;;;0.10;0.10;;;;;;;15.70;100.00;101425.75;5114217;28;20276;-47
2023/08/24 05:05:32;;;;;;;0.10;0.10;;;;;;;15.59;100.00;101428.16;5113944;28;20035;-50
2023/08/24 05:07:59;;;;;;;0.10;0.10;;;;;;;15.54;100.00;101419.41;5113421;28;20533;-48
2023/08/24 05:10:24;;;;;;;0.10;0.10;;;;;;;15.51;100.00;101424.56;5113802;27;20111;-47
2023/08/24 05:12:50;;;;;;;0.10;0.10;;;;;;;15.50;100.00;101428.00;5114227;28;20153;-49
2023/08/24 05:15:15;;;;;;;0.10;0.10;;;;;;;15.50;100.00;101435.81;5112050;28;20039;-51
2023/08/24 05:17:41;;;;;;;0.10;0.10;;;;;;;15.55;100.00;101436.75;5114161;28;20085;-47
2023/08/24 05:20:08;;;;;;;0.10;0.10;;;;;;;15.58;100.00;101436.81;5113868;28;20040;-47
2023/08/24 05:22:33;;;;;;;0.10;0.10;;;;;;;15.64;100.00;101429.13;5112877;28;20035;-50
2023/08/24 05:24:59;;;;;;;0.10;0.10;;;;;;;15.57;100.00;101424.66;5113767;28;20027;-51
2023/08/24 05:27:24;;;;;;;0.10;0.10;;;;;;;15.62;100.00;101416.13;5113398;28;20098;-48
2023/08/24 05:29:49;;;;;;;0.10;0.10;;;;;;;15.68;100.00;101412.75;5113028;28;20027;-51
2023/08/24 05:32:15;;;;;;;0.10;0.10;;;;;;;15.77;100.00;101412.91;5113533;28;20024;-51
2023/08/24 05:34:40;;;;;;;0.10;0.10;;;;;;;15.82;100.00;101404.34;5113595;28;20027;-50
2023/08/24 05:37:05;;;;;;;0.10;0.10;;;;;;;15.82;100.00;101410.41;5112812;28;20019;-46
2023/08/24 05:39:31;;;;;;;0.10;0.10;;;;;;;15.84;100.00;101402.63;5113597;28;20031;-51
2023/08/24 05:41:56;;;;;;;0.10;0.10;;;;;;;15.92;100.00;101403.63;5113774;27;20032;-50
2023/08/24 05:44:22;;;;;;;0.10;0.10;;;;;;;15.93;100.00;101400.19;5112622;28;20023;-47
2023/08/24 05:46:47;;;;;;;0.10;0.10;;;;;;;15.98;100.00;101395.94;5113749;28;20087;-47
2023/08/24 05:49:13;;;;;;;0.10;0.10;;;;;;;15.99;100.00;101389.91;5113031;28;20039;-49
2023/08/24 05:51:38;;;;;;;0.10;0.10;;;;;;;16.09;100.00;101384.00;5112809;28;20528;-47
2023/08/24 05:54:04;;;;;;;0.10;0.10;;;;;;;16.15;100.00;101385.78;5113197;28;20402;-45
2023/08/24 05:56:29;;;;;;;0.10;0.10;;;;;;;16.18;100.00;101375.47;5113257;28;20069;-50
2023/08/24 05:58:57;;;;;;;0.10;0.10;;;;;;;16.26;100.00;101380.78;5112753;28;20027;-45
2023/08/24 06:01:22;;;;;;;;;;;;;;;16.35;100.00;101380.03;5113561;28;20024;-46
2023/08/24 06:03:49;;;;;;;0.10;0.10;;;;;;;16.36;100.00;101372.25;5113293;28;19965;-50
2023/08/24 06:06:14;;;;;;;0.10;0.10;;;;;;;16.41;100.00;101359.28;5112155;28;20030;-45
2023/08/24 06:08:39;;;;;;;0.10;0.10;;;;;;;16.48;100.00;101357.66;5113447;28;20012;-47
2023/08/24 06:11:05;;;;;;;0.10;0.10;;;;;;;16.53;100.00;101350.81;5112582;28;20020;-48
2023/08/24 06:13:30;;;;;;;0.10;0.10;;;;;;;16.60;100.00;101344.81;5112692;28;20027;-47
2023/08/24 06:15:55;;;;;;;0.10;0.10;;;;;;;16.65;100.00;101332.72;5113108;28;20038;-46
2023/08/24 06:18:21;;;;;;;0.10;0.10;;;;;;;16.70;100.00;101331.06;5112059;28;20016;-49
2023/08/24 06:20:48;;;;;;;0.03;0.03;;;;;;;16.78;100.00;101326.81;5113605;28;20035;-51
2023/08/24 06:23:14;;;;;;;0.10;0.10;;;;;;;16.83;100.00;101332.06;5113007;28;20027;-46
2023/08/24 06:25:40;;;;;;;0.10;0.10;;;;;;;16.89;100.00;101337.34;5112801;28;20027;-47
2023/08/24 06:28:05;;;;;;;0.00;0.00;;;;;;;16.99;100.00;101342.69;5117305;28;20054;-47
2023/08/24 06:30:36;;;;;;;0.00;0.00;;;;;;;17.04;100.00;101354.03;5117033;28;20346;-50
2023/08/24 06:33:02;;;;;;;0.10;0.10;;;;;;;17.07;100.00;101362.75;5116317;28;20020;-49
2023/08/24 06:35:28;;;;;;;0.10;0.10;;;;;;;17.15;100.00;101365.44;5116990;28;20015;-50
2023/08/24 06:37:53;;;;;;;0.10;0.10;;;;;;;17.18;100.00;101362.84;5117191;28;20060;-50
2023/08/24 06:40:19;;;;;;;0.10;0.10;;;;;;;17.24;100.00;101360.31;5116185;28;20058;-49
2023/08/24 06:42:44;;;;;;;0.00;0.00;;;;;;;17.27;100.00;101359.47;5116941;28;20108;-46
2023/08/24 06:45:10;;;;;;;0.10;0.10;;;;;;;17.33;100.00;101356.09;5117041;28;20027;-47
2023/08/24 06:47:35;;;;;;;0.00;0.00;;;;;;;17.45;100.00;101356.19;5115799;28;20023;-47
2023/08/24 06:50:01;;;;;;;0.00;0.00;;;;;;;17.52;100.00;101354.50;5117013;28;20020;-50
2023/08/24 06:52:26;;;;;;;0.10;0.10;;;;;;;17.63;100.00;101350.25;5116325;28;20102;-46
2023/08/24 06:54:55;;;;;;;0.03;0.03;;;;;;;17.72;100.00;101358.16;5115898;28;20028;-49
2023/08/24 06:57:20;;;;;;;0.10;0.10;;;;;;;17.84;100.00;101361.72;5116360;28;20023;-50
2023/08/24 06:59:45;;;;;;;0.10;0.10;;;;;;;17.93;100.00;101356.59;5116654;28;20387;-51
2023/08/24 07:02:11;;;;;;;0.10;0.10;;;;;;;18.04;100.00;101349.72;5115757;28;20028;-46
2023/08/24 07:04:38;;;;;;;0.00;0.00;;;;;;;18.16;100.00;101345.47;5116778;28;20098;-47
2023/08/24 07:07:03;;;;;;;0.00;0.00;;;;;;;18.29;100.00;101354.25;5116569;27;20102;-49
2023/08/24 07:09:29;;;;;;;0.00;0.00;;;;;;;18.37;100.00;101348.19;5115375;28;20107;-46
2023/08/24 07:11:54;;;;;;;0.00;0.00;;;;;;;18.51;100.00;101342.16;5116416;28;20059;-45
2023/08/24 07:14:19;;;;;;;0.03;0.03;;;;;;;18.66;100.00;101337.00;5115283;28;20027;-45
2023/08/24 07:16:45;;;;;;;0.10;0.10;;;;;;;18.78;100.00;101337.94;5116207;28;20023;-50
2023/08/24 07:19:10;;;;;;;0.10;0.10;;;;;;;18.88;100.00;101337.09;5116339;28;20108;-46
2023/08/24 07:21:35;;;;;;;0.00;0.00;;;;;;;18.98;100.00;101333.69;5115431;28;20020;-45
2023/08/24 07:24:01;;;;;;;0.00;0.00;;;;;;;19.07;100.00;101331.06;5116163;28;20104;-45
2023/08/24 07:26:26;;;;;;;0.00;0.00;;;;;;;19.17;100.00;101325.88;5115916;28;20031;-48
2023/08/24 07:28:52;;;;;;;0.00;0.00;;;;;;;19.34;100.00;101332.00;5115339;28;20030;-46
2023/08/24 07:31:18;;;;;;;0.08;0.08;;;;;;;19.42;100.00;101327.63;5115591;28;20034;-49
2023/08/24 07:33:44;;;;;;;0.00;0.00;;;;;;;19.65;100.00;101325.88;5115864;28;20023;-49
2023/08/24 07:36:09;;;;;;;0.00;0.00;;;;;;;19.81;100.00;101325.00;5115295;28;20024;-48
2023/08/24 07:38:34;;;;;;;0.03;0.03;;;;;;;19.99;100.00;101329.38;5114934;28;20027;-46
2023/08/24 07:41:00;;;;;;;0.00;0.00;;;;;;;20.17;100.00;101333.69;5115781;28;20027;-46
2023/08/24 07:43:25;;;;;;;0.00;0.00;;;;;;;20.45;100.00;101328.41;5114715;28;20165;-47
2023/08/24 07:45:51;;;;;;;0.00;0.00;;;;;;;20.60;100.00;101327.44;5115684;28;20019;-46
2023/08/24 07:48:17;;;;;;;0.00;0.00;;;;;;;20.81;100.00;101321.28;5115698;28;20019;-51
2023/08/24 07:50:42;;;;;;;0.00;0.00;;;;;;;21.02;100.00;101315.03;5114971;28;20023;-47
2023/08/24 07:53:07;;;;;;;0.00;0.00;;;;;;;21.09;100.00;101315.84;5115697;28;20051;-46
2023/08/24 07:55:32;;;;;;;0.00;0.00;;;;;;;21.25;100.00;101327.09;5115256;28;20028;-46
2023/08/24 07:57:58;;;;;;;0.00;0.00;;;;;;;21.35;100.00;101325.28;5114844;28;20064;-47
2023/08/24 08:00:24;;;;;;;0.00;0.00;;;;;;;21.57;100.00;101333.88;5115281;28;20102;-48
2023/08/24 08:02:51;;;;;;;0.00;0.00;;;;;;;21.67;100.00;101330.28;5115533;28;20415;-51
2023/08/24 08:05:17;;;;;;;0.00;0.00;;;;;;;21.79;99.98;101339.78;5114487;28;20047;-48
2023/08/24 08:07:42;;;;;;;0.00;0.00;;;;;;;21.86;98.56;101331.00;5115551;28;20028;-51
2023/08/24 08:10:08;;;;;;;0.00;0.00;;;;;;;22.07;100.00;101329.03;5115153;28;20039;-48
2023/08/24 08:12:37;;;;;;;0.00;0.00;;;;;;;22.27;100.00;101336.72;5114195;27;20098;-50
2023/08/24 08:15:02;;;;;;;0.00;0.00;;;;;;;22.29;100.00;101334.91;5115030;28;20028;-49
2023/08/24 08:17:30;;;;;;;0.00;0.00;;;;;;;22.51;99.61;101332.94;5115033;28;20088;-50
2023/08/24 08:19:55;;;;;;;;;;;;;;;22.75;100.00;101337.91;5115259;28;20023;-46
2023/08/24 08:22:20;;;;;;;0.00;0.00;;;;;;;22.85;98.87;101327.25;5115082;28;19968;-47
2023/08/24 08:24:46;;;;;;;0.10;0.10;;;;;;;22.98;98.34;101330.56;5114472;28;20106;-46
2023/08/24 08:27:11;;;;;;;0.00;0.00;;;;;;;23.16;95.95;101318.97;5114352;28;20015;-48
2023/08/24 08:29:36;;;;;;;0.00;0.00;;;;;;;23.37;99.04;101314.25;5114676;28;20458;-51
2023/08/24 08:32:02;;;;;;;0.00;0.00;;;;;;;23.40;94.48;101313.31;5113963;28;20030;-45
2023/08/24 08:34:27;;;;;;;0.00;0.00;;;;;;;23.41;92.21;101307.16;5114552;28;20027;-45
2023/08/24 08:36:53;;;;;;;0.00;0.00;;;;;;;23.49;93.55;101294.75;5114908;27;20382;-45
2023/08/24 08:39:18;;;;;;;0.00;0.00;;;;;;;23.76;92.00;101293.38;5113666;28;20382;-50
2023/08/24 08:41:44;;;;;;;0.00;0.00;;;;;;;23.90;89.81;101287.00;5114675;28;20040;-47
2023/08/24 08:44:13;;;;;;;0.00;0.00;;;;;;;23.72;90.13;101280.31;5114579;28;20023;-51
2023/08/24 08:46:40;;;;;;;0.00;0.00;;;;;;;24.05;89.42;101270.06;5113932;28;20019;-50
2023/08/24 08:49:07;;;;;;;0.00;0.00;;;;;;;24.16;87.52;101260.19;5114568;28;20340;-46
2023/08/24 08:51:34;;;;;;;0.00;0.00;;;;;;;24.09;88.90;101263.84;5114328;28;20097;-50
2023/08/24 08:54:00;;;;;;;0.00;0.00;;;;;;;24.30;88.96;101260.78;5113396;28;20054;-47
2023/08/24 08:56:26;;;;;;;0.00;0.00;;;;;;;24.37;85.67;101252.75;5114059;28;20375;-46
2023/08/24 08:58:52;;;;;;;0.00;0.00;;;;;;;24.53;86.19;101243.59;5114213;28;20023;-50
2023/08/24 09:01:19;;;;;;;0.00;0.00;;;;;;;24.59;87.12;101243.44;5113496;28;20102;-46
2023/08/24 09:03:44;;;;;;;0.00;0.00;;;;;;;24.72;82.40;101236.16;5114461;28;20027;-49
2023/08/24 09:06:10;;;;;;;0.00;0.00;;;;;;;24.74;84.30;101230.84;5114399;28;20047;-49
2023/08/24 09:08:36;;;;;;;0.00;0.00;;;;;;;25.05;86.25;101227.47;5113306;28;20085;-45
2023/08/24 09:11:02;;;;;;;0.00;0.00;;;;;;;25.13;82.37;101210.56;5114065;28;20023;-49
2023/08/24 09:13:28;;;;;;;0.00;0.00;;;;;;;25.22;83.35;101206.81;5113619;28;20441;-50
2023/08/24 09:16:02;;;;;;;0.00;0.00;;;;;;;25.38;84.21;101207.28;5113599;28;20031;-45
2023/08/24 09:18:37;;;;;;;0.00;0.00;;;;;;;25.16;84.42;101193.78;5113632;28;20019;-50
2023/08/24 09:21:09;;;;;;;0.00;0.00;;;;;;;25.57;82.51;101194.47;5113358;28;20027;-46
2023/08/24 09:23:34;;;;;;;0.00;0.00;;;;;;;25.29;79.00;101183.78;5113514;28;20035;-46
2023/08/24 09:25:59;;;;;;;0.00;0.00;;;;;;;25.04;81.34;101175.66;5113917;28;20112;-50
2023/08/24 09:28:25;;;;;;;0.10;0.00;;;;;;;25.55;80.24;101176.97;5112856;28;20031;-46
2023/08/24 09:30:54;;;;;;;0.00;0.00;;;;;;;25.46;80.17;101183.34;5113947;28;20027;-47
2023/08/24 09:33:21;;;;;;;0.00;0.00;;;;;;;25.71;78.81;101180.06;5113437;28;20038;-46
2023/08/24 09:35:52;;;;;;;0.00;0.00;;;;;;;26.11;81.85;101186.84;5112914;28;20051;-46
2023/08/24 09:38:21;;;;;;;0.00;0.00;;;;;;;26.20;77.58;101181.25;5113332;28;20032;-48
2023/08/24 09:40:51;;;;;;;0.00;0.00;;;;;;;26.26;76.65;101198.69;5113819;28;20114;-49
2023/08/24 09:43:16;;;;;;;0.00;0.00;;;;;;;26.43;74.30;101208.75;5112736;28;20020;-50
2023/08/24 09:45:52;;;;;;;0.00;0.00;;;;;;;26.23;75.62;101222.56;5113509;28;20379;-51
2023/08/24 09:48:18;;;;;;;0.00;0.00;;;;;;;26.26;75.16;101233.91;5113264;28;20043;-45
2023/08/24 09:50:51;;;;;;;0.00;0.00;;;;;;;26.37;75.87;101232.72;5112528;28;20471;-48
2023/08/24 09:53:23;;;;;;;0.00;0.00;;;;;;;26.53;78.96;101226.03;5112967;28;20062;-48
2023/08/24 09:55:52;;;;;;;0.00;0.00;;;;;;;26.71;75.39;101218.44;5113223;28;20059;-50
2023/08/24 09:58:18;;;;;;;0.00;0.00;;;;;;;26.61;74.66;101224.03;5112291;28;20394;-45
2023/08/24 10:00:49;;;;;;;0.00;0.00;;;;;;;26.70;73.30;101229.94;5112895;28;20499;-48
2023/08/24 10:03:24;;;;;;;0.00;0.00;;;;;;;26.63;76.40;101235.41;5112275;28;20030;-49
2023/08/24 10:06:00;;;;;;;0.00;0.00;;;;;;;26.62;77.30;101235.47;5113271;28;20020;-50
2023/08/24 10:08:35;;;;;;;0.00;0.00;;;;;;;26.39;77.00;101242.34;5113049;28;20023;-47
2023/08/24 10:11:00;;;;;;;0.00;0.00;;;;;;;26.53;75.64;101241.91;5112697;28;20062;-51
2023/08/24 10:13:32;;;;;;;0.00;0.00;;;;;;;26.48;78.78;101249.09;5112638;28;20039;-50
2023/08/24 10:15:59;;;;;;;0.00;0.00;;;;;;;26.20;79.06;101255.22;5113148;28;20063;-46
2023/08/24 10:18:26;;;;;;;0.10;0.00;;;;;;;26.01;77.90;101254.00;5112292;28;20024;-48
2023/08/24 10:20:52;;;;;;;0.00;0.00;;;;;;;25.88;77.14;101249.06;5113082;28;20032;-47
2023/08/24 10:23:19;;;;;;;0.00;0.00;;;;;;;25.81;81.67;101244.88;5112982;28;20036;-46
2023/08/24 10:25:46;;;;;;;0.00;0.00;;;;;;;25.83;81.43;101240.41;5112381;28;20024;-50
2023/08/24 10:28:13;;;;;;;0.00;0.00;;;;;;;25.85;81.97;101235.97;5113002;28;20100;-46
2023/08/24 10:30:39;;;;;;;;;;;;;;;26.01;81.63;101227.59;5113730;28;20027;-47
2023/08/24 10:33:05;;;;;;;0.00;0.00;;;;;;;25.51;83.88;101236.88;5112522;28;20286;-49
2023/08/24 10:35:31;;;;;;;0.00;0.00;;;;;;;25.22;84.83;101237.63;5112697;28;20031;-51
2023/08/24 10:37:59;;;;;;;0.00;0.00;;;;;;;24.93;86.76;101250.63;5113189;28;20150;-48
2023/08/24 10:40:39;;;;;;;0.00;0.00;;;;;;;24.84;86.46;101244.69;5112098;28;20051;-49
2023/08/24 10:43:05;;;;;;;0.00;0.00;;;;;;;24.65;86.41;101256.53;5112960;28;20019;-45
2023/08/24 10:45:59;;;;;;;0.00;0.00;;;;;;;24.61;87.50;101252.19;5112174;28;20472;-47
2023/08/24 10:48:29;;;;;;;0.00;0.00;;;;;;;24.47;90.64;101256.91;5112551;28;20528;-48
2023/08/24 10:51:13;;;;;;;0.00;0.00;;;;;;;24.44;90.28;101265.75;5112931;28;20030;-48
2023/08/24 10:53:39;;;;;;;0.00;0.00;;;;;;;24.28;88.04;101253.81;5111776;28;20051;-50
2023/08/24 10:56:12;;;;;;;0.00;0.00;;;;;;;24.34;90.25;101248.41;5113146;28;20020;-51
2023/08/24 10:58:38;;;;;;;0.00;0.00;;;;;;;24.44;89.57;101243.78;5112986;28;20031;-51
2023/08/24 11:01:03;;;;;;;0.00;0.00;;;;;;;24.44;91.74;101239.41;5112013;28;20034;-49
2023/08/24 11:03:33;;;;;;;0.00;0.00;;;;;;;24.50;91.80;101233.13;5112377;28;20023;-51
2023/08/24 11:05:58;;;;;;;0.00;0.00;;;;;;;24.60;94.02;101223.25;5112674;28;20028;-48
2023/08/24 11:08:44;;;;;;;0.00;0.00;;;;;;;24.72;90.00;101216.84;5111876;28;20099;-48
2023/08/24 11:11:19;;;;;;;0.00;0.00;;;;;;;24.76;89.03;101234.31;5112700;28;20031;-48
2023/08/24 11:14:13;;;;;;;0.00;0.00;;;;;;;24.73;87.45;101234.41;5113885;28;20032;-49
2023/08/24 11:16:46;;;;;;;0.00;0.00;;;;;;;24.56;86.55;101232.13;5116436;28;20046;-49